Overview Statistics Trail Chart Weather Telemetry Raw packets
 

This is the latest recevied weather packets stored in our database for station/object W5DNT. If no packets are shown the sender has not sent any weather packets the latest 10 day(s).

<< 22 23 24 25 26 27 28 >>
Time Temp. Humidity Pressure Rain* Wind** Luminosity Snow
1788116410 36.11° C 35% 1013.2 hPa 0 mm - - -
1788115506 35.56° C 37% 1013.5 hPa 0 mm - - -
1788114606 35.56° C 37% 1014 hPa 0 mm - - -
1788113702 35.56° C 38% 1014.2 hPa 0 mm - - -
1788112859 35° C 40% 1014.5 hPa 0 mm - - -
1788111957 35° C 39% 1014.9 hPa 0 mm - - -
1788111054 34.44° C 42% 1015 hPa 0 mm - - -
1788110162 34.44° C 43% 1015.2 hPa 0 mm - - -
1788109249 33.89° C 44% 1015.4 hPa 0 mm - - -
1788108359 33.33° C 45% 1015.5 hPa 0 mm - - -
1788107441 32.78° C 48% 1015.6 hPa 0 mm - - -
1788106538 32.78° C 48% 1015.5 hPa 0 mm - - -
1788105634 31.67° C 54% 1015.7 hPa 0 mm - - -
1788104730 31.11° C 56% 1015.7 hPa 0 mm - - -
1788103828 31.11° C 58% 1015.7 hPa 0 mm - - -
1788102923 30° C 59% 1015.6 hPa 0 mm - - -
1788102020 29.44° C 63% 1015.6 hPa 0 mm - - -
1788101117 28.89° C 66% 1015.7 hPa 0 mm - - -
1788100213 28.33° C 68% 1015.6 hPa 0 mm - - -
1788099321 27.22° C 70% 1015.4 hPa 0 mm - - -
1788098411 26.67° C 72% 1015.4 hPa 0 mm - - -
1788097510 26.11° C 74% 1015.3 hPa 0 mm - - -
1788096608 25.56° C 75% 1015.3 hPa 0 mm - - -
1788095707 25° C 76% 1015.1 hPa 0 mm - - -
1788094811 - - 1015.2 hPa 0 mm - - -

* Rain latest hour (hover to see other rain measurements)
** Current wind speed in m/s (hover to see current wind gust speed)